Overview Statistics Trail Chart Weather Telemetry Raw packets
 

This is the latest recevied weather packets stored in our database for station/object KY0TEQ-13. If no packets are shown the sender has not sent any weather packets the latest 10 day(s).

<< 16 17 18 19 20 21 22 >>
Time Temp. Humidity Pressure Rain* Wind** Luminosity Snow
1788576775 20° C 41% 1307.4 hPa 0 mm - 0 W/m² -
1788576470 20° C 42% 1307.4 hPa 0 mm - 0 W/m² -
1788576166 19.44° C 44% 1307.2 hPa 0 mm - 0 W/m² -
1788575861 20° C 43% 1307.3 hPa 0 mm - 0 W/m² -
1788575556 20° C 43% 1307.1 hPa 0 mm - 0 W/m² -
1788575255 20° C 42% 1307.1 hPa 0 mm - 0 W/m² -
1788574952 20.56° C 41% 1306.8 hPa 0 mm - 0 W/m² -
1788574650 20° C 41% 1306.8 hPa 0 mm - 0 W/m² -
1788574345 20° C 42% 1306.8 hPa 0 mm - 0 W/m² -
1788574040 20° C 42% 1306.6 hPa 0 mm - 0 W/m² -
1788573736 21.11° C 41% 1306.5 hPa 0 mm - 0 W/m² -
1788573434 21.67° C 38% 1306.6 hPa 0 mm - 0 W/m² -
1788573129 21.67° C 38% 1306.9 hPa 0 mm - 0 W/m² -
1788572828 22.22° C 37% 1306.6 hPa 0 mm - 1 W/m² -
1788572524 22.78° C 36% 1306.8 hPa 0 mm - 2 W/m² -
1788572220 22.78° C 36% 1306.8 hPa 0 mm - 3 W/m² -
1788571914 22.78° C 35% 1306.7 hPa 0 mm - 5 W/m² -
1788571609 23.33° C 35% 1306.8 hPa 0 mm - 8 W/m² -
1788571301 23.89° C 35% 1306.7 hPa 0 mm - 11 W/m² -
1788570997 24.44° C 33% 1306.7 hPa 0 mm - 13 W/m² -
1788570692 25° C 32% 1306.7 hPa 0 mm - 17 W/m² -
1788570387 25° C 33% 1306.5 hPa 0 mm - 20 W/m² -
1788570083 25° C 32% 1306.7 hPa 0 mm - 21 W/m² -
1788569778 25.56° C 29% 1306.5 hPa 0 mm - 22 W/m² -
1788569474 25.56° C 31% 1306.6 hPa 0 mm - 27 W/m² -

* Rain latest hour (hover to see other rain measurements)
** Current wind speed in m/s (hover to see current wind gust speed)